createdAt,value
2022-07-26T00:02:05.248Z,98496.78
2022-07-26T00:04:33.360Z,98486.94
2022-07-26T00:07:01.239Z,98491.03
2022-07-26T00:09:29.169Z,98497.72
2022-07-26T00:11:57.356Z,98490.47
2022-07-26T00:14:25.378Z,98494.84
2022-07-26T00:16:53.365Z,98492.25
2022-07-26T00:19:21.405Z,98493.53
2022-07-26T00:22:09.226Z,98485.22
2022-07-26T00:24:37.244Z,98482.50
2022-07-26T00:27:05.521Z,98496.59
2022-07-26T00:29:33.441Z,98493.44
2022-07-26T00:32:01.365Z,98497.50
2022-07-26T00:34:29.277Z,98491.47
2022-07-26T00:36:57.021Z,98493.94
2022-07-26T00:39:24.982Z,98486.72
2022-07-26T00:41:53.151Z,98491.63
2022-07-26T00:44:21.092Z,98499.34
2022-07-26T00:46:48.916Z,98505.22
2022-07-26T00:49:16.860Z,98507.72
2022-07-26T00:51:46.673Z,98498.38
2022-07-26T00:54:17.307Z,98487.78
2022-07-26T00:56:46.261Z,98502.94
2022-07-26T00:59:14.128Z,98494.19
2022-07-26T01:01:42.192Z,98495.75
2022-07-26T01:04:10.444Z,98492.16
2022-07-26T01:06:38.832Z,98489.94
2022-07-26T01:09:06.743Z,98489.78
2022-07-26T01:11:34.581Z,98489.00
2022-07-26T01:14:02.565Z,98487.13
2022-07-26T01:16:30.585Z,98482.94
2022-07-26T01:18:58.679Z,98476.63
2022-07-26T01:21:34.259Z,98486.38
2022-07-26T01:24:02.547Z,98481.72
2022-07-26T01:26:30.481Z,98482.22
2022-07-26T01:28:58.442Z,98475.19
2022-07-26T01:31:27.121Z,98478.50
2022-07-26T01:33:55.203Z,98473.28
2022-07-26T01:36:23.189Z,98475.78
2022-07-26T01:38:51.314Z,98478.38
2022-07-26T01:41:21.421Z,98469.31
2022-07-26T01:44:08.217Z,98466.97
2022-07-26T01:46:36.379Z,98465.13
2022-07-26T01:49:05.039Z,98458.09
2022-07-26T01:51:33.155Z,98453.44
2022-07-26T01:54:02.488Z,98456.25
2022-07-26T01:56:30.675Z,98448.22
2022-07-26T01:58:58.629Z,98441.00
2022-07-26T02:01:39.681Z,98437.09
2022-07-26T02:04:29.139Z,98431.63
2022-07-26T02:06:56.962Z,98439.28
2022-07-26T02:09:25.853Z,98431.94
2022-07-26T02:12:06.836Z,98433.19
2022-07-26T02:14:34.847Z,98427.97
2022-07-26T02:17:03.123Z,98431.81
2022-07-26T02:19:31.982Z,98422.97
2022-07-26T02:22:00.367Z,98427.59
2022-07-26T02:24:29.524Z,98421.91
2022-07-26T02:27:01.826Z,98424.97
2022-07-26T02:29:29.956Z,98421.53
2022-07-26T02:31:57.979Z,98420.09
2022-07-26T02:34:26.137Z,98428.84
2022-07-26T02:36:54.043Z,98442.69
2022-07-26T02:39:27.695Z,98432.41
2022-07-26T02:42:00.662Z,98429.84
2022-07-26T02:44:29.721Z,98430.53
2022-07-26T02:46:57.597Z,98429.22
2022-07-26T02:49:25.534Z,98424.31
2022-07-26T02:51:53.388Z,98429.44
2022-07-26T02:54:21.247Z,98436.91
2022-07-26T02:56:48.984Z,98430.69
2022-07-26T02:59:16.746Z,98428.56
2022-07-26T03:01:44.569Z,98422.22
2022-07-26T03:04:12.490Z,98424.00
2022-07-26T03:06:40.309Z,98421.44
2022-07-26T03:09:08.064Z,98417.75
2022-07-26T03:11:35.891Z,98417.69
2022-07-26T03:14:03.703Z,98408.59
2022-07-26T03:16:31.926Z,98417.28
2022-07-26T03:19:01.563Z,98420.53
2022-07-26T03:21:29.469Z,98411.66
2022-07-26T03:23:57.334Z,98409.16
2022-07-26T03:26:25.182Z,98402.56
2022-07-26T03:28:53.221Z,98407.16
2022-07-26T03:31:21.166Z,98403.88
2022-07-26T03:33:49.235Z,98407.34
2022-07-26T03:36:17.015Z,98394.00
2022-07-26T03:38:45.263Z,98406.88
2022-07-26T03:41:13.840Z,98410.09
2022-07-26T03:43:41.940Z,98398.91
2022-07-26T03:46:09.935Z,98406.25
2022-07-26T03:48:37.982Z,98397.06
2022-07-26T03:51:06.175Z,98395.56
2022-07-26T03:53:34.650Z,98412.09
2022-07-26T03:56:21.562Z,98395.44
2022-07-26T03:58:49.418Z,98394.66
2022-07-26T04:01:17.507Z,98397.34
2022-07-26T04:03:47.691Z,98397.06
2022-07-26T04:06:16.339Z,98398.75
2022-07-26T04:08:44.373Z,98400.25
2022-07-26T04:11:12.493Z,98396.25
2022-07-26T04:13:40.637Z,98394.69
2022-07-26T04:16:08.789Z,98397.03
2022-07-26T04:18:36.728Z,98397.91
2022-07-26T04:21:04.775Z,98398.84
2022-07-26T04:23:32.667Z,98403.28
2022-07-26T04:26:00.486Z,98400.03
2022-07-26T04:28:29.151Z,98408.50
2022-07-26T04:30:59.164Z,98399.31
2022-07-26T04:33:27.523Z,98406.88
2022-07-26T04:35:55.496Z,98403.94
2022-07-26T04:38:23.301Z,98414.13
2022-07-26T04:40:51.957Z,98412.16
2022-07-26T04:43:20.257Z,98403.94
2022-07-26T04:45:48.956Z,98412.66
2022-07-26T04:48:17.775Z,98391.16
2022-07-26T04:50:45.778Z,98402.75
2022-07-26T04:53:13.671Z,98390.69
2022-07-26T04:55:42.490Z,98400.00
2022-07-26T04:58:11.387Z,98404.50
2022-07-26T05:03:27.739Z,98398.31
2022-07-26T05:05:55.481Z,98391.50
2022-07-26T05:08:23.389Z,98394.94
2022-07-26T05:10:55.478Z,98401.22
2022-07-26T05:13:29.547Z,98393.84
2022-07-26T05:16:00.017Z,98398.16
2022-07-26T05:18:31.484Z,98379.44
2022-07-26T05:20:59.935Z,98387.63
2022-07-26T05:23:27.886Z,98394.19
2022-07-26T05:25:56.505Z,98384.53
2022-07-26T05:28:24.467Z,98382.09
2022-07-26T05:30:52.604Z,98385.31
2022-07-26T05:33:20.788Z,98382.34
2022-07-26T05:35:48.637Z,98373.72
2022-07-26T05:38:16.419Z,98385.75
2022-07-26T05:40:50.053Z,98383.03
2022-07-26T05:43:18.832Z,98381.31
2022-07-26T05:45:46.876Z,98380.06
2022-07-26T05:48:14.733Z,98378.84
2022-07-26T05:50:42.551Z,98375.03
2022-07-26T05:53:10.559Z,98367.59
2022-07-26T05:55:38.352Z,98372.31
2022-07-26T05:58:06.387Z,98363.31
2022-07-26T06:00:34.635Z,98360.72
2022-07-26T06:03:22.177Z,98356.63
2022-07-26T06:05:57.137Z,98352.53
2022-07-26T06:08:26.773Z,98351.22
2022-07-26T06:10:55.234Z,98345.00
2022-07-26T06:13:23.460Z,98337.97
2022-07-26T06:15:52.446Z,98333.28
2022-07-26T06:18:20.174Z,98339.72
2022-07-26T06:20:49.129Z,98328.28
2022-07-26T06:23:16.920Z,98329.22
2022-07-26T06:25:44.775Z,98331.72
2022-07-26T06:28:12.788Z,98320.50
2022-07-26T06:30:40.734Z,98322.75
2022-07-26T06:33:09.690Z,98321.59
2022-07-26T06:35:39.343Z,98324.03
2022-07-26T06:38:08.253Z,98318.16
2022-07-26T06:40:36.682Z,98307.94
2022-07-26T06:43:05.000Z,98310.34
2022-07-26T06:45:34.214Z,98302.38
2022-07-26T06:48:02.505Z,98308.53
2022-07-26T06:50:30.401Z,98297.81
2022-07-26T06:52:58.570Z,98297.16
2022-07-26T06:55:26.518Z,98295.09
2022-07-26T06:57:54.351Z,98296.78
2022-07-26T07:00:22.295Z,98293.00
2022-07-26T07:02:50.307Z,98286.50
2022-07-26T07:05:18.165Z,98277.63
2022-07-26T07:07:46.187Z,98273.06
2022-07-26T07:10:14.452Z,98273.16
2022-07-26T07:12:44.792Z,98275.78
2022-07-26T07:15:13.086Z,98269.56
2022-07-26T07:17:40.913Z,98270.81
2022-07-26T07:20:09.312Z,98273.50
2022-07-26T07:22:37.086Z,98271.47
2022-07-26T07:25:06.068Z,98267.16
2022-07-26T07:27:34.424Z,98267.69
2022-07-26T07:30:04.188Z,98270.41
2022-07-26T07:32:32.205Z,98264.72
2022-07-26T07:35:00.102Z,98264.78
2022-07-26T07:37:27.921Z,98262.59
2022-07-26T07:40:15.870Z,98265.63
2022-07-26T07:42:44.128Z,98261.00
2022-07-26T07:45:12.215Z,98264.34
2022-07-26T07:47:40.074Z,98255.19
2022-07-26T07:50:08.661Z,98246.34
2022-07-26T07:52:36.512Z,98254.22
2022-07-26T07:55:37.811Z,98246.44
2022-07-26T07:57:52.612Z,98246.41
2022-07-26T08:00:27.046Z,98242.22
2022-07-26T08:02:55.693Z,98237.94
2022-07-26T08:05:23.484Z,98232.56
2022-07-26T08:07:52.806Z,98234.25
2022-07-26T08:10:20.824Z,98236.28
2022-07-26T08:12:51.201Z,98228.97
2022-07-26T08:15:19.676Z,98227.88
2022-07-26T08:17:53.911Z,98220.00
2022-07-26T08:20:24.948Z,98222.41
2022-07-26T08:22:53.724Z,98219.19
2022-07-26T08:25:22.398Z,98224.63
2022-07-26T08:28:03.176Z,98218.31
2022-07-26T08:30:34.739Z,98219.88
2022-07-26T08:33:02.607Z,98220.13
2022-07-26T08:35:30.495Z,98218.00
2022-07-26T08:37:58.593Z,98217.59
2022-07-26T08:40:26.563Z,98211.47
2022-07-26T08:42:57.543Z,98212.97
2022-07-26T08:45:30.697Z,98205.72
2022-07-26T08:48:18.444Z,98203.50
2022-07-26T08:50:48.219Z,98198.88
2022-07-26T08:53:16.913Z,98201.09
2022-07-26T08:56:06.079Z,98195.75
2022-07-26T08:58:35.427Z,98189.25
2022-07-26T09:01:13.048Z,98194.91
2022-07-26T09:03:42.956Z,98188.59
2022-07-26T09:06:25.501Z,98190.25
2022-07-26T09:09:12.724Z,98186.63
2022-07-26T09:11:40.532Z,98190.31
2022-07-26T09:14:08.491Z,98182.25
2022-07-26T09:16:39.611Z,98186.19
2022-07-26T09:19:23.604Z,98182.47
2022-07-26T09:21:52.562Z,98181.25
2022-07-26T09:24:43.177Z,98185.56
2022-07-26T09:27:15.519Z,98183.78
2022-07-26T09:29:51.386Z,98188.13
2022-07-26T09:32:24.715Z,98181.06
2022-07-26T09:35:50.046Z,98181.63
2022-07-26T09:38:16.353Z,98179.81
2022-07-26T09:40:44.885Z,98183.88
2022-07-26T09:43:23.777Z,98179.75
2022-07-26T09:46:07.414Z,98177.47
2022-07-26T09:49:07.196Z,98181.66
2022-07-26T09:51:43.145Z,98167.81
2022-07-26T09:54:18.097Z,98171.25
2022-07-26T09:56:52.251Z,98176.63
2022-07-26T09:59:23.743Z,98161.66
2022-07-26T10:01:54.532Z,98172.13
2022-07-26T10:04:23.007Z,98165.34
2022-07-26T10:06:51.943Z,98164.28
2022-07-26T10:09:20.452Z,98168.81
2022-07-26T10:12:03.421Z,98167.31
2022-07-26T10:14:34.032Z,98161.31
2022-07-26T10:17:30.944Z,98159.03
2022-07-26T10:20:17.442Z,98162.13
2022-07-26T10:22:51.558Z,98156.84
2022-07-26T10:25:19.594Z,98157.75
2022-07-26T10:27:53.908Z,98160.63
2022-07-26T10:30:33.848Z,98154.94
2022-07-26T10:33:09.111Z,98160.25
2022-07-26T10:35:42.032Z,98158.38
2022-07-26T10:38:24.035Z,98154.25
2022-07-26T10:41:04.846Z,98162.66
2022-07-26T10:43:42.536Z,98152.84
2022-07-26T10:46:16.791Z,98157.47
2022-07-26T10:49:06.921Z,98148.09
2022-07-26T10:51:38.084Z,98154.22
2022-07-26T10:54:13.126Z,98153.47
2022-07-26T10:56:41.581Z,98157.72
2022-07-26T10:59:09.554Z,98155.50
2022-07-26T11:01:42.342Z,98150.63
2022-07-26T11:04:20.579Z,98144.19
2022-07-26T11:06:49.158Z,98140.03
2022-07-26T11:09:20.941Z,98145.31
2022-07-26T11:11:52.444Z,98144.25
2022-07-26T11:14:20.360Z,98145.78
2022-07-26T11:16:50.609Z,98140.50
2022-07-26T11:19:26.068Z,98147.31
2022-07-26T11:21:59.122Z,98135.22
2022-07-26T11:24:29.331Z,98136.75
2022-07-26T11:27:04.345Z,98140.53
2022-07-26T11:29:40.359Z,98136.75
2022-07-26T11:32:39.135Z,98128.03
2022-07-26T11:35:07.500Z,98132.66
2022-07-26T11:37:35.349Z,98136.09
2022-07-26T11:40:03.367Z,98133.84
2022-07-26T11:42:31.154Z,98134.97
2022-07-26T11:44:59.013Z,98127.44
2022-07-26T11:47:26.986Z,98124.00
2022-07-26T11:50:14.316Z,98122.50
2022-07-26T11:52:43.099Z,98131.09
2022-07-26T11:55:11.036Z,98126.91
2022-07-26T11:57:38.911Z,98124.59
2022-07-26T12:00:08.160Z,98130.69
2022-07-26T12:02:42.229Z,98124.94
2022-07-26T12:05:20.283Z,98120.06
2022-07-26T12:07:58.355Z,98130.22
2022-07-26T12:10:28.017Z,98127.53
2022-07-26T12:13:16.985Z,98125.97
2022-07-26T12:15:53.850Z,98128.34
2022-07-26T12:18:29.705Z,98117.75
2022-07-26T12:21:08.645Z,98118.16
2022-07-26T12:23:51.163Z,98120.09
2022-07-26T12:26:27.381Z,98111.72
2022-07-26T12:28:57.474Z,98110.22
2022-07-26T12:31:34.208Z,98101.91
2022-07-26T12:34:02.401Z,98103.53
2022-07-26T12:36:34.493Z,98104.34
2022-07-26T12:39:02.428Z,98093.72
2022-07-26T12:41:40.413Z,98098.69
2022-07-26T12:44:12.740Z,98094.44
2022-07-26T12:46:41.062Z,98091.03
2022-07-26T12:49:09.096Z,98091.41
2022-07-26T12:51:37.464Z,98083.81
2022-07-26T12:54:06.572Z,98090.69
2022-07-26T12:56:35.213Z,98081.56
2022-07-26T12:59:03.310Z,98087.28
2022-07-26T13:01:33.042Z,98077.84
2022-07-26T13:04:01.123Z,98075.22
2022-07-26T13:06:29.302Z,98076.00
2022-07-26T13:08:57.179Z,98076.38
2022-07-26T13:11:25.438Z,98074.13
2022-07-26T13:13:53.503Z,98071.06
2022-07-26T13:16:21.742Z,98071.78
2022-07-26T13:18:49.494Z,98073.28
2022-07-26T13:21:17.866Z,98071.78
2022-07-26T13:23:45.899Z,98070.63
2022-07-26T13:26:14.048Z,98066.84
2022-07-26T13:28:42.468Z,98074.34
2022-07-26T13:31:11.012Z,98065.22
2022-07-26T13:33:39.570Z,98064.34
2022-07-26T13:36:07.672Z,98076.09
2022-07-26T13:38:35.584Z,98065.50
2022-07-26T13:41:04.587Z,98065.06
2022-07-26T13:43:33.166Z,98071.47
2022-07-26T13:46:02.005Z,98077.50
2022-07-26T13:48:30.006Z,98066.16
2022-07-26T13:51:00.943Z,98062.84
2022-07-26T13:53:30.514Z,98065.53
2022-07-26T13:55:58.259Z,98066.63
2022-07-26T13:58:26.088Z,98074.59
2022-07-26T14:00:54.583Z,98078.00
2022-07-26T14:03:22.926Z,98085.56
2022-07-26T14:05:51.213Z,98070.78
2022-07-26T14:08:19.074Z,98079.50
2022-07-26T14:10:47.261Z,98076.13
2022-07-26T14:13:15.537Z,98079.31
2022-07-26T14:15:43.385Z,98082.00
2022-07-26T14:18:11.220Z,98073.66
2022-07-26T14:20:39.186Z,98077.03
2022-07-26T14:23:06.992Z,98075.06
2022-07-26T14:25:34.853Z,98073.19
2022-07-26T14:28:02.634Z,98066.75
2022-07-26T14:30:30.525Z,98072.50
2022-07-26T14:32:58.411Z,98072.50
2022-07-26T14:35:26.201Z,98070.53
2022-07-26T14:37:54.413Z,98078.41
2022-07-26T14:40:22.287Z,98082.91
2022-07-26T14:42:50.135Z,98088.25
2022-07-26T14:45:17.932Z,98077.28
2022-07-26T14:47:45.701Z,98085.31
2022-07-26T14:50:18.521Z,98088.75
2022-07-26T14:52:48.077Z,98080.00
2022-07-26T14:55:19.355Z,98089.50
2022-07-26T14:57:50.877Z,98090.66
2022-07-26T15:00:19.276Z,98091.31
2022-07-26T15:02:49.888Z,98097.72
2022-07-26T15:05:19.081Z,98101.84
2022-07-26T15:07:47.087Z,98096.50
2022-07-26T15:10:15.817Z,98101.06
2022-07-26T15:12:44.752Z,98110.84
2022-07-26T15:15:12.658Z,98117.16
2022-07-26T15:17:40.665Z,98108.75
2022-07-26T15:20:08.805Z,98109.81
2022-07-26T15:22:36.760Z,98110.72
2022-07-26T15:25:05.076Z,98123.78
2022-07-26T15:27:33.014Z,98137.63
2022-07-26T15:30:05.309Z,98120.34
2022-07-26T15:32:36.478Z,98134.09
2022-07-26T15:35:07.508Z,98140.34
2022-07-26T15:37:44.067Z,98150.78
2022-07-26T15:40:13.020Z,98148.31
2022-07-26T15:42:45.668Z,98156.44
2022-07-26T15:45:14.012Z,98159.28
2022-07-26T15:47:54.875Z,98163.63
2022-07-26T15:50:25.095Z,98181.09
2022-07-26T15:52:53.140Z,98179.13
2022-07-26T15:55:21.255Z,98179.72
2022-07-26T15:57:49.243Z,98181.13
2022-07-26T16:00:17.743Z,98193.09
2022-07-26T16:02:45.629Z,98192.56
2022-07-26T16:05:14.011Z,98197.72
2022-07-26T16:07:43.766Z,98197.56
2022-07-26T16:10:13.728Z,98206.91
2022-07-26T16:12:42.703Z,98208.69
2022-07-26T16:15:11.888Z,98225.09
2022-07-26T16:17:40.358Z,98233.91
2022-07-26T16:20:09.302Z,98250.28
2022-07-26T16:22:41.091Z,98250.31
2022-07-26T16:25:12.617Z,98285.69
2022-07-26T16:27:45.287Z,98301.91
2022-07-26T16:30:14.784Z,98313.38
2022-07-26T16:32:43.416Z,98313.00
2022-07-26T16:35:11.616Z,98323.50
2022-07-26T16:37:39.740Z,98332.06
2022-07-26T16:40:10.257Z,98337.66
2022-07-26T16:42:38.308Z,98348.56
2022-07-26T16:45:06.885Z,98364.94
2022-07-26T16:47:34.925Z,98369.41
2022-07-26T16:50:02.865Z,98375.94
2022-07-26T16:52:30.663Z,98365.13
2022-07-26T16:54:58.690Z,98345.00
2022-07-26T16:57:27.703Z,98340.84
2022-07-26T16:59:55.657Z,98340.00
2022-07-26T17:02:23.675Z,98342.59
2022-07-26T17:04:52.370Z,98362.03
2022-07-26T17:07:25.439Z,98380.09
2022-07-26T17:09:55.897Z,98398.88
2022-07-26T17:12:25.655Z,98412.72
2022-07-26T17:14:53.690Z,98427.31
2022-07-26T17:17:21.663Z,98437.13
2022-07-26T17:19:50.040Z,98447.84
2022-07-26T17:22:18.598Z,98451.97
2022-07-26T17:24:47.290Z,98465.78
2022-07-26T17:27:17.249Z,98473.00
2022-07-26T17:29:45.316Z,98479.31
2022-07-26T17:32:13.123Z,98484.22
2022-07-26T17:34:41.926Z,98491.00
2022-07-26T17:37:10.353Z,98492.34
2022-07-26T17:39:53.235Z,98492.63
2022-07-26T17:42:22.881Z,98494.19
2022-07-26T17:44:51.729Z,98487.59
2022-07-26T17:47:29.129Z,98488.22
2022-07-26T17:50:36.044Z,98491.50
2022-07-26T17:52:53.663Z,98486.28
2022-07-26T17:55:22.224Z,98475.66
2022-07-26T17:57:51.089Z,98483.69
2022-07-26T18:00:22.944Z,98486.09
2022-07-26T18:02:50.955Z,98485.66
2022-07-26T18:05:19.936Z,98450.75
2022-07-26T18:07:47.923Z,98423.50
2022-07-26T18:10:15.775Z,98421.94
2022-07-26T18:12:43.735Z,98424.38
2022-07-26T18:15:12.085Z,98428.47
2022-07-26T18:17:40.115Z,98430.13
2022-07-26T18:20:08.958Z,98448.28
2022-07-26T18:22:36.861Z,98462.44
2022-07-26T18:25:06.045Z,98471.13
2022-07-26T18:27:34.089Z,98466.31
2022-07-26T18:30:02.407Z,98466.44
2022-07-26T18:32:30.503Z,98459.38
2022-07-26T18:34:58.299Z,98461.84
2022-07-26T18:37:26.231Z,98478.47
2022-07-26T18:39:57.747Z,98489.13
2022-07-26T18:42:27.328Z,98509.56
2022-07-26T18:44:55.222Z,98524.72
2022-07-26T18:47:23.490Z,98532.78
2022-07-26T18:49:51.616Z,98542.00
2022-07-26T18:52:31.850Z,98535.28
2022-07-26T18:55:07.433Z,98536.94
2022-07-26T18:57:37.574Z,98540.88
2022-07-26T19:00:09.829Z,98555.34
2022-07-26T19:02:38.209Z,98556.34
2022-07-26T19:05:07.041Z,98567.63
2022-07-26T19:07:37.680Z,98568.59
2022-07-26T19:10:10.943Z,98575.72
2022-07-26T19:12:39.748Z,98572.03
2022-07-26T19:15:09.163Z,98580.72
2022-07-26T19:17:37.584Z,98585.94
2022-07-26T19:20:07.021Z,98585.34
2022-07-26T19:22:35.730Z,98587.66
2022-07-26T19:25:08.477Z,98583.91
2022-07-26T19:27:36.826Z,98591.72
2022-07-26T19:30:09.745Z,98598.09
2022-07-26T19:32:38.987Z,98602.81
2022-07-26T19:35:08.153Z,98599.44
2022-07-26T19:37:36.949Z,98611.81
2022-07-26T19:40:05.994Z,98618.56
2022-07-26T19:42:34.014Z,98620.56
2022-07-26T19:45:01.856Z,98624.31
2022-07-26T19:47:30.579Z,98633.00
2022-07-26T19:49:58.922Z,98634.13
2022-07-26T19:52:26.869Z,98643.88
2022-07-26T19:54:54.897Z,98636.16
2022-07-26T19:57:23.021Z,98634.13
2022-07-26T19:59:51.149Z,98653.00
2022-07-26T20:02:19.070Z,98646.78
2022-07-26T20:04:46.929Z,98639.63
2022-07-26T20:07:19.763Z,98644.59
2022-07-26T20:09:50.464Z,98659.44
2022-07-26T20:12:19.953Z,98660.44
2022-07-26T20:14:47.963Z,98657.00
2022-07-26T20:17:16.575Z,98665.88
2022-07-26T20:19:44.633Z,98664.88
2022-07-26T20:22:12.451Z,98670.88
2022-07-26T20:24:40.360Z,98671.97
2022-07-26T20:27:08.372Z,98670.44
2022-07-26T20:29:36.908Z,98666.28
2022-07-26T20:32:05.265Z,98671.41
2022-07-26T20:34:33.170Z,98674.38
2022-07-26T20:37:01.071Z,98670.94
2022-07-26T20:39:29.646Z,98666.06
2022-07-26T20:41:57.580Z,98669.72
2022-07-26T20:44:28.418Z,98676.19
2022-07-26T20:46:56.692Z,98678.94
2022-07-26T20:49:24.806Z,98688.09
2022-07-26T20:51:52.719Z,98682.59
2022-07-26T20:54:20.854Z,98687.59
2022-07-26T20:56:48.678Z,98689.22
2022-07-26T20:59:16.523Z,98688.22
2022-07-26T21:01:44.589Z,98699.28
2022-07-26T21:04:12.387Z,98700.41
2022-07-26T21:06:40.602Z,98705.41
2022-07-26T21:09:10.028Z,98711.38
2022-07-26T21:11:39.598Z,98713.47
2022-07-26T21:14:07.475Z,98719.47
2022-07-26T21:16:36.563Z,98713.16
2022-07-26T21:19:06.011Z,98717.00
2022-07-26T21:21:34.429Z,98722.00
2022-07-26T21:24:02.239Z,98726.97
2022-07-26T21:26:30.469Z,98724.63
2022-07-26T21:28:58.618Z,98724.81
2022-07-26T21:31:26.882Z,98728.69
2022-07-26T21:33:54.984Z,98731.09
2022-07-26T21:36:23.401Z,98735.84
2022-07-26T21:38:51.186Z,98727.31
2022-07-26T21:41:18.955Z,98726.63
2022-07-26T21:43:46.739Z,98731.72
2022-07-26T21:46:15.237Z,98735.53
2022-07-26T21:48:43.111Z,98737.69
2022-07-26T21:51:11.064Z,98748.13
2022-07-26T21:53:38.956Z,98735.97
2022-07-26T21:56:07.062Z,98741.16
2022-07-26T21:58:36.867Z,98745.13
2022-07-26T22:01:07.358Z,98747.25
2022-07-26T22:03:37.570Z,98746.78
2022-07-26T22:06:07.634Z,98747.06
2022-07-26T22:08:36.928Z,98745.44
2022-07-26T22:11:05.378Z,98745.91
2022-07-26T22:13:33.349Z,98750.28
2022-07-26T22:16:01.377Z,98750.53
2022-07-26T22:18:29.258Z,98743.38
2022-07-26T22:20:57.286Z,98743.69
2022-07-26T22:23:30.577Z,98749.41
2022-07-26T22:26:02.019Z,98752.28
2022-07-26T22:28:32.632Z,98746.31
2022-07-26T22:31:01.370Z,98745.25
2022-07-26T22:33:29.511Z,98739.84
2022-07-26T22:35:57.295Z,98739.13
2022-07-26T22:38:25.139Z,98736.78
2022-07-26T22:40:53.053Z,98742.00
2022-07-26T22:43:21.549Z,98732.91
2022-07-26T22:45:49.492Z,98740.44
2022-07-26T22:48:17.375Z,98740.66
2022-07-26T22:50:45.174Z,98742.00
2022-07-26T22:53:13.035Z,98749.84
2022-07-26T22:55:40.839Z,98741.53
2022-07-26T22:58:08.949Z,98751.97
2022-07-26T23:00:37.020Z,98743.97
2022-07-26T23:03:11.841Z,98747.41
2022-07-26T23:05:52.727Z,98739.66
2022-07-26T23:08:47.110Z,98743.84
2022-07-26T23:11:10.010Z,98749.81
2022-07-26T23:13:37.834Z,98749.06
2022-07-26T23:16:06.279Z,98742.91
2022-07-26T23:18:35.302Z,98763.16
2022-07-26T23:21:04.301Z,98750.66
2022-07-26T23:23:32.623Z,98755.34
2022-07-26T23:26:01.055Z,98765.69
2022-07-26T23:28:37.152Z,98757.91
2022-07-26T23:31:09.213Z,98751.66
2022-07-26T23:33:52.203Z,98756.34
2022-07-26T23:36:28.540Z,98757.13
2022-07-26T23:38:58.612Z,98756.91
2022-07-26T23:41:28.310Z,98747.84
2022-07-26T23:43:56.808Z,98752.84
2022-07-26T23:46:25.661Z,98756.69
2022-07-26T23:48:55.410Z,98761.91
2022-07-26T23:51:23.231Z,98758.53
2022-07-26T23:53:51.854Z,98757.00
2022-07-26T23:56:19.923Z,98765.81
2022-07-26T23:58:47.947Z,98748.91
